Time;durP1;ratioP1;P1;durP2;ratioP2;P2;SDS_P1;SDS_P2;PMS_P1;PMS_P2;Temp;Humidity;BMP_temperature;BMP_pressure;BME280_temperature;BME280_humidity;BME280_pressure;Samples;Min_cycle;Max_cycle;Signal;HPM_P1;HPM_P2
2021/04/07 00:00:36;;;;;;;22.73;13.25;;;;;;;5.25;76.80;97905.23;1731686;80;21462;-62
2021/04/07 00:03:06;;;;;;;26.87;14.55;;;;;;;5.30;76.79;97905.74;1736854;82;21577;-62
2021/04/07 00:05:39;;;;;;;22.30;14.28;;;;;;;5.15;77.11;97908.55;1740802;80;21126;-62
2021/04/07 00:08:07;;;;;;;20.20;12.45;;;;;;;5.05;77.54;97913.48;1737176;82;21658;-62
2021/04/07 00:10:41;;;;;;;12.88;8.95;;;;;;;5.01;77.89;97916.47;1735199;80;21299;-62
2021/04/07 00:13:11;;;;;;;11.57;7.58;;;;;;;4.82;78.42;97916.30;1732295;82;21618;-62
2021/04/07 00:15:40;;;;;;;10.55;6.90;;;;;;;4.69;79.03;97917.45;1732818;82;21299;-62
2021/04/07 00:18:07;;;;;;;11.53;7.60;;;;;;;4.58;78.94;97901.88;1724721;80;21231;-62
2021/04/07 00:20:36;;;;;;;10.90;7.45;;;;;;;4.58;79.37;97914.55;1742989;80;21173;-62
2021/04/07 00:23:04;;;;;;;11.88;6.83;;;;;;;4.46;80.00;97909.50;1746728;82;21165;-62
2021/04/07 00:25:31;;;;;;;11.57;6.45;;;;;;;4.48;79.86;97909.48;1740751;82;21184;-62
2021/04/07 00:28:06;;;;;;;10.30;6.92;;;;;;;4.49;80.16;97903.55;1752406;82;21314;-61
2021/04/07 00:30:36;;;;;;;11.68;6.35;;;;;;;4.35;80.68;97907.39;1743124;80;21145;-62
2021/04/07 00:33:04;;;;;;;8.78;6.05;;;;;;;4.28;80.82;97912.80;1743711;82;21300;-62
2021/04/07 00:35:32;;;;;;;7.60;5.53;;;;;;;4.27;80.79;97907.14;1745424;82;21309;-62
2021/04/07 00:38:00;;;;;;;8.30;5.53;;;;;;;4.10;81.34;97909.36;1731235;80;21625;-62
2021/04/07 00:40:28;;;;;;;7.47;5.20;;;;;;;4.00;81.71;97915.59;1728360;82;21157;-62
2021/04/07 00:42:55;;;;;;;6.10;4.33;;;;;;;;;;1746962;82;21165;-61
2021/04/07 00:45:23;;;;;;;7.28;4.30;;;;;;;3.94;82.15;97918.81;1743421;82;21161;-61
2021/04/07 00:47:52;;;;;;;6.05;4.97;;;;;;;3.95;81.92;97918.28;1742399;82;21313;-62
2021/04/07 00:50:24;;;;;;;7.50;4.60;;;;;;;3.93;82.14;97917.76;1748681;80;21123;-62
2021/04/07 00:52:52;;;;;;;5.37;4.37;;;;;;;3.87;82.23;97920.17;1738590;81;21568;-62
2021/04/07 00:55:25;;;;;;;7.05;4.62;;;;;;;3.94;82.09;97926.08;1715471;82;21672;-62
2021/04/07 00:57:53;;;;;;;6.85;4.55;;;;;;;3.92;82.08;97928.25;1741237;82;21162;-62
2021/04/07 01:00:22;;;;;;;7.35;4.67;;;;;;;3.84;82.28;97928.27;1746994;80;21693;-62
2021/04/07 01:02:58;;;;;;;5.72;3.65;;;;;;;3.87;82.10;97929.59;1702867;83;21302;-62
2021/04/07 01:05:26;;;;;;;6.07;3.60;;;;;;;3.89;82.06;97935.00;1676672;85;21273;-62
2021/04/07 01:07:57;;;;;;;6.00;4.00;;;;;;;3.77;82.40;97940.38;1712881;83;21244;-61
2021/04/07 01:10:24;;;;;;;6.53;4.45;;;;;;;3.82;82.14;97939.85;1746687;80;21158;-62
2021/04/07 01:12:54;;;;;;;6.53;5.45;;;;;;;3.80;82.24;97946.56;1749749;82;21220;-61
2021/04/07 01:15:22;;;;;;;7.53;6.22;;;;;;;3.70;82.52;97939.85;1749271;80;21154;-62
2021/04/07 01:17:51;;;;;;;8.38;5.65;;;;;;;3.72;82.40;97934.45;1745135;81;21199;-61
2021/04/07 01:20:20;;;;;;;9.03;6.40;;;;;;;3.75;82.28;97930.44;1698261;82;21176;-62
2021/04/07 01:22:52;;;;;;;8.75;7.10;;;;;;;3.67;82.46;97935.83;1742315;81;21309;-61
2021/04/07 01:25:21;;;;;;;9.63;6.90;;;;;;;3.67;82.52;97930.98;1728888;80;21868;-62
2021/04/07 01:27:48;;;;;;;9.13;7.05;;;;;;;3.72;82.52;97928.30;1736361;80;21319;-62
2021/04/07 01:30:17;;;;;;;8.38;6.65;;;;;;;3.62;82.58;97925.05;1739300;80;21145;-62
2021/04/07 01:32:44;;;;;;;8.93;7.00;;;;;;;3.64;82.51;97925.61;1742708;80;21211;-62
2021/04/07 01:35:14;;;;;;;11.78;6.47;;;;;;;3.67;82.62;97926.94;1733178;82;21161;-61
2021/04/07 01:37:42;;;;;;;9.15;6.40;;;;;;;3.53;82.91;97922.66;1740960;80;21142;-61
2021/04/07 01:40:15;;;;;;;8.83;5.67;;;;;;;3.54;82.81;97927.50;1727575;82;21573;-62
2021/04/07 01:42:45;;;;;;;8.55;5.72;;;;;;;3.61;82.48;97924.00;1742334;82;21681;-62
2021/04/07 01:45:13;;;;;;;12.03;7.47;;;;;;;3.59;82.56;97915.38;1731409;80;21684;-62
2021/04/07 01:47:43;;;;;;;10.20;7.12;;;;;;;3.54;82.71;97912.17;1741484;80;21189;-62
2021/04/07 01:50:11;;;;;;;8.20;6.30;;;;;;;3.55;82.40;97913.76;1741639;82;21448;-62
2021/04/07 01:52:39;;;;;;;9.58;7.65;;;;;;;3.59;81.89;97905.42;1741276;82;21133;-63
2021/04/07 01:55:09;;;;;;;8.78;6.33;;;;;;;3.51;81.95;97896.01;1741860;82;21123;-62
2021/04/07 01:57:37;;;;;;;9.83;7.62;;;;;;;3.46;82.19;97888.49;1738014;82;21138;-62
2021/04/07 02:00:11;;;;;;;11.25;9.15;;;;;;;3.50;82.09;97885.00;1744620;80;21130;-62
2021/04/07 02:02:41;;;;;;;;;;;;;;;3.51;81.90;97870.98;1740094;81;21177;-62
2021/04/07 02:05:11;;;;;;;11.45;8.90;;;;;;;3.43;82.10;97869.67;1742519;82;20209;-61
2021/04/07 02:07:39;;;;;;;10.82;7.97;;;;;;;3.30;82.44;97852.72;1740166;80;21205;-62
2021/04/07 02:10:11;;;;;;;9.10;6.15;;;;;;;3.35;82.28;97851.92;1743345;81;21107;-62
2021/04/07 02:12:39;;;;;;;10.18;7.35;;;;;;;3.41;82.22;97840.06;1747401;82;21126;-62
2021/04/07 02:15:14;;;;;;;9.60;7.20;;;;;;;3.37;82.24;97840.34;1745554;82;21553;-62
2021/04/07 02:17:44;;;;;;;8.20;5.60;;;;;;;3.36;82.29;97836.05;1745098;80;21210;-61
2021/04/07 02:20:12;;;;;;;6.78;4.75;;;;;;;3.45;82.17;97832.53;1733894;80;21165;-62
2021/04/07 02:22:40;;;;;;;7.55;4.42;;;;;;;3.41;82.26;97837.37;1752195;81;21165;-62
2021/04/07 02:25:10;;;;;;;5.67;4.42;;;;;;;3.33;82.48;97833.91;1741383;80;21145;-62
2021/04/07 02:27:38;;;;;;;5.45;4.35;;;;;;;3.34;82.42;97849.77;1749498;82;21169;-61
2021/04/07 02:30:09;;;;;;;6.78;4.58;;;;;;;3.42;82.03;97859.98;1742367;82;21534;-61
2021/04/07 02:32:37;;;;;;;7.42;4.20;;;;;;;3.38;82.13;97861.59;1746192;80;21295;-61
2021/04/07 02:35:05;;;;;;;5.85;4.00;;;;;;;3.36;82.26;97860.27;1735883;80;21601;-62
2021/04/07 02:37:32;;;;;;;5.05;3.40;;;;;;;3.36;82.08;97881.25;1733957;82;21157;-61
2021/04/07 02:40:01;;;;;;;5.67;3.35;;;;;;;3.44;81.70;97885.25;1743403;80;21272;-61
2021/04/07 02:42:28;;;;;;;6.05;4.05;;;;;;;3.40;81.83;97893.62;1744112;82;21588;-61
2021/04/07 02:44:57;;;;;;;5.83;3.52;;;;;;;3.30;81.76;97894.41;1740737;82;21177;-62
2021/04/07 02:47:24;;;;;;;4.03;2.55;;;;;;;3.28;81.72;97905.98;1737103;80;21157;-62
2021/04/07 02:49:52;;;;;;;3.75;2.50;;;;;;;3.28;81.49;97904.64;1741155;80;21150;-62
2021/04/07 02:52:21;;;;;;;4.87;2.65;;;;;;;3.22;81.53;97915.13;1743627;80;21971;-62
2021/04/07 02:54:48;;;;;;;4.00;2.22;;;;;;;3.15;81.76;97920.50;1738979;80;21560;-62
2021/04/07 02:57:16;;;;;;;6.62;2.83;;;;;;;3.26;81.58;97932.88;1743809;82;21296;-62
2021/04/07 02:59:44;;;;;;;4.65;2.72;;;;;;;3.28;81.63;97938.25;1748533;80;21192;-62
2021/04/07 03:02:11;;;;;;;4.85;2.72;;;;;;;3.16;81.64;97934.19;1739916;80;21165;-61
2021/04/07 03:04:39;;;;;;;5.15;3.05;;;;;;;3.16;81.62;97932.84;1738975;80;21146;-61
2021/04/07 03:07:07;;;;;;;4.12;2.40;;;;;;;3.18;81.36;97942.81;1740750;82;21184;-61
2021/04/07 03:09:35;;;;;;;4.00;2.05;;;;;;;2.98;81.36;97932.83;1727722;80;21132;-61
2021/04/07 03:12:04;;;;;;;3.40;1.92;;;;;;;3.06;81.32;97961.88;1743448;80;21637;-61
2021/04/07 03:14:31;;;;;;;4.42;2.30;;;;;;;3.13;81.04;97965.12;1736922;80;21645;-61
2021/04/07 03:17:01;;;;;;;5.15;2.10;;;;;;;3.10;80.77;97971.03;1736667;80;21288;-61
2021/04/07 03:19:30;;;;;;;3.67;1.87;;;;;;;2.99;80.78;97972.89;1744632;80;21307;-62
2021/04/07 03:21:58;;;;;;;2.72;1.40;;;;;;;3.01;80.78;97972.64;1743225;80;21626;-61
2021/04/07 03:24:26;;;;;;;4.50;1.70;;;;;;;3.04;80.67;97968.61;1742492;82;21479;-61
2021/04/07 03:26:53;;;;;;;3.95;2.17;;;;;;;3.00;80.85;97971.83;1730254;80;21196;-61
2021/04/07 03:29:21;;;;;;;3.58;1.90;;;;;;;2.98;80.99;97975.30;1740983;82;21160;-62
2021/04/07 03:31:48;;;;;;;2.58;1.57;;;;;;;3.05;80.84;97966.20;1727741;80;21161;-61
2021/04/07 03:34:16;;;;;;;2.72;1.67;;;;;;;3.03;80.84;97967.79;1746174;80;21612;-62
2021/04/07 03:36:43;;;;;;;2.52;1.57;;;;;;;2.93;80.73;97977.18;1711745;83;21213;-61
2021/04/07 03:39:11;;;;;;;3.12;1.82;;;;;;;2.84;80.80;97969.34;1730524;82;21310;-61
2021/04/07 03:41:39;;;;;;;1.70;1.00;;;;;;;2.81;80.78;97976.06;1739890;82;21586;-62
2021/04/07 03:44:07;;;;;;;3.33;1.80;;;;;;;2.82;80.69;97976.88;1745286;80;21298;-61
2021/04/07 03:46:35;;;;;;;3.75;1.98;;;;;;;2.67;81.01;97978.97;1746180;82;21141;-61
2021/04/07 03:49:02;;;;;;;3.42;1.70;;;;;;;2.59;80.94;97980.81;1746915;82;21642;-61
2021/04/07 03:51:30;;;;;;;1.55;1.15;;;;;;;2.61;80.81;97984.59;1739505;80;21153;-61
2021/04/07 03:53:58;;;;;;;2.17;1.12;;;;;;;2.60;80.86;97985.12;1745398;80;21143;-62
2021/04/07 03:56:27;;;;;;;1.77;1.02;;;;;;;2.59;80.82;97978.69;1739054;81;21679;-61
2021/04/07 03:58:55;;;;;;;1.90;1.22;;;;;;;2.63;80.67;97991.31;1742095;80;21137;-62
2021/04/07 04:01:22;;;;;;;1.67;1.00;;;;;;;2.56;80.76;97989.41;1743620;82;21173;-62
2021/04/07 04:03:50;;;;;;;1.10;0.60;;;;;;;2.54;80.74;97983.50;1744887;80;21149;-61
2021/04/07 04:06:18;;;;;;;1.35;0.90;;;;;;;2.62;80.46;97986.22;1745168;80;21153;-61
2021/04/07 04:08:45;;;;;;;3.30;0.90;;;;;;;2.59;80.24;97985.41;1750911;80;21588;-61
2021/04/07 04:11:12;;;;;;;1.60;0.80;;;;;;;2.50;80.37;97993.95;1748874;82;21165;-62
2021/04/07 04:13:40;;;;;;;1.27;0.75;;;;;;;2.53;80.42;97991.80;1746092;80;21195;-61
2021/04/07 04:16:08;;;;;;;1.27;0.90;;;;;;;2.58;80.37;97987.81;1750963;82;21582;-61
2021/04/07 04:18:36;;;;;;;1.82;0.90;;;;;;;2.51;80.60;97983.47;1745383;80;21170;-62
2021/04/07 04:21:05;;;;;;;3.30;1.40;;;;;;;2.50;80.54;97989.92;1749474;82;21157;-61
2021/04/07 04:23:32;;;;;;;2.75;1.90;;;;;;;2.59;80.59;97989.44;1745520;80;21185;-62
2021/04/07 04:26:01;;;;;;;3.30;2.00;;;;;;;2.59;80.79;97998.27;1744871;80;21165;-62
2021/04/07 04:28:28;;;;;;;2.90;1.70;;;;;;;2.57;80.57;97996.93;1745296;82;21153;-61
2021/04/07 04:30:56;;;;;;;2.70;1.80;;;;;;;2.55;80.20;97981.63;1742221;82;21625;-61
2021/04/07 04:33:23;;;;;;;2.17;1.57;;;;;;;2.49;80.30;97982.94;1732586;80;21185;-61
2021/04/07 04:35:51;;;;;;;2.58;2.02;;;;;;;2.41;80.65;97983.42;1748389;80;21149;-61
2021/04/07 04:38:19;;;;;;;2.90;1.90;;;;;;;2.49;80.52;97987.49;1744314;80;21222;-61
2021/04/07 04:40:47;;;;;;;3.47;2.15;;;;;;;2.46;80.69;97996.89;1733806;80;21608;-61
2021/04/07 04:43:14;;;;;;;2.80;2.10;;;;;;;2.43;80.87;97992.58;1726736;80;21235;-62
2021/04/07 04:45:43;;;;;;;3.22;2.60;;;;;;;2.51;80.67;98004.17;1750676;82;21145;-61
2021/04/07 04:48:11;;;;;;;4.37;2.70;;;;;;;2.43;80.73;98001.45;1743506;82;21185;-62
2021/04/07 04:50:39;;;;;;;5.12;3.40;;;;;;;2.37;81.17;98011.86;1744887;82;21530;-61
2021/04/07 04:53:06;;;;;;;3.62;2.87;;;;;;;2.38;81.09;98006.78;1742079;80;21160;-61
2021/04/07 04:55:34;;;;;;;3.40;2.60;;;;;;;2.46;80.79;98008.16;1739275;80;21689;-62
2021/04/07 04:58:02;;;;;;;4.45;3.27;;;;;;;2.44;80.99;98007.62;1743918;80;21129;-61
2021/04/07 05:00:29;;;;;;;3.67;3.00;;;;;;;2.37;80.90;98010.52;1749314;80;21153;-61
2021/04/07 05:02:57;;;;;;;4.55;3.22;;;;;;;2.41;80.56;98015.65;1733411;80;21276;-62
2021/04/07 05:05:25;;;;;;;3.95;2.90;;;;;;;2.43;80.63;98025.62;1742206;80;21665;-62
2021/04/07 05:07:52;;;;;;;5.47;3.55;;;;;;;2.39;80.86;98024.52;1735821;82;21135;-61
2021/04/07 05:10:20;;;;;;;5.45;3.20;;;;;;;2.46;81.08;98030.98;1742775;82;21154;-61
2021/04/07 05:12:48;;;;;;;5.83;3.52;;;;;;;2.57;80.68;98035.34;1737257;80;21177;-61
2021/04/07 05:15:16;;;;;;;4.50;3.05;;;;;;;2.62;80.78;98033.23;1738481;82;21166;-62
2021/04/07 05:17:44;;;;;;;5.17;3.10;;;;;;;2.61;80.83;98036.45;1737762;82;21157;-62
2021/04/07 05:20:14;;;;;;;5.03;3.08;;;;;;;2.64;80.50;98037.27;1735946;80;21629;-62
2021/04/07 05:22:41;;;;;;;4.67;3.30;;;;;;;2.73;80.15;98041.05;1738751;82;21461;-62
2021/04/07 05:25:10;;;;;;;4.55;3.20;;;;;;;2.66;80.09;98045.08;1729999;80;21154;-62
2021/04/07 05:27:38;;;;;;;4.60;3.20;;;;;;;2.62;80.55;98052.84;1748002;82;21693;-62
2021/04/07 05:30:08;;;;;;;4.92;3.17;;;;;;;2.66;79.93;98047.20;1747178;82;21141;-61
2021/04/07 05:32:35;;;;;;;6.47;3.80;;;;;;;2.58;79.75;98048.25;1744084;82;21380;-61
2021/04/07 05:35:05;;;;;;;5.15;3.27;;;;;;;2.48;79.88;98058.38;1752644;81;21173;-62
2021/04/07 05:37:32;;;;;;;4.80;3.20;;;;;;;2.54;79.76;98047.16;1752712;82;21735;-61
2021/04/07 05:40:00;;;;;;;6.30;3.70;;;;;;;2.56;80.11;98051.19;1732795;82;21299;-61
2021/04/07 05:42:27;;;;;;;5.95;3.27;;;;;;;2.49;80.47;98052.77;1751274;82;21957;-62
2021/04/07 05:44:55;;;;;;;3.90;2.33;;;;;;;2.54;80.55;98056.55;1726368;82;21193;-59
2021/04/07 05:47:22;;;;;;;6.20;3.00;;;;;;;2.53;79.33;98054.40;1727350;82;21296;-60
2021/04/07 05:49:50;;;;;;;4.00;2.10;;;;;;;2.46;79.51;98063.22;1740353;82;21300;-60
2021/04/07 05:52:18;;;;;;;3.33;1.95;;;;;;;2.42;79.85;98058.09;1741094;82;21153;-60
2021/04/07 05:54:45;;;;;;;3.10;1.92;;;;;;;2.50;79.76;98062.98;1709958;84;21136;-59
2021/04/07 05:57:14;;;;;;;2.95;1.55;;;;;;;2.48;79.80;98049.80;1683294;85;21147;-60
2021/04/07 05:59:42;;;;;;;3.30;1.87;;;;;;;2.52;79.85;98062.17;1672293;85;21166;-61
2021/04/07 06:02:10;;;;;;;1.80;1.22;;;;;;;2.51;79.82;98055.98;1670542;83;21626;-61
2021/04/07 06:04:37;;;;;;;1.87;1.10;;;;;;;2.56;79.53;98059.24;1734879;82;21137;-60
2021/04/07 06:07:06;;;;;;;2.67;1.50;;;;;;;2.56;78.92;98061.12;1730103;82;21137;-62
2021/04/07 06:09:35;;;;;;;2.65;1.80;;;;;;;2.52;79.37;98059.48;1737697;82;21184;-61
2021/04/07 06:12:03;;;;;;;3.77;2.12;;;;;;;2.55;79.89;98056.84;1740383;82;21461;-61
2021/04/07 06:14:31;;;;;;;3.12;1.90;;;;;;;2.64;79.67;98053.38;1731728;82;21190;-60
2021/04/07 06:16:59;;;;;;;4.55;2.17;;;;;;;2.76;79.48;98062.05;1747099;82;21166;-60
2021/04/07 06:19:26;;;;;;;3.98;1.95;;;;;;;2.72;78.75;98055.58;1745801;80;21582;-60
2021/04/07 06:21:53;;;;;;;2.87;1.55;;;;;;;2.60;79.10;98056.31;1733487;81;21149;-60
2021/04/07 06:24:21;;;;;;;2.77;1.70;;;;;;;2.58;78.84;98052.28;1723444;82;21141;-60
2021/04/07 06:26:48;;;;;;;2.42;1.50;;;;;;;2.65;78.96;98055.01;1740664;81;21605;-58
2021/04/07 06:29:16;;;;;;;1.77;1.00;;;;;;;2.58;78.95;98056.31;1739287;82;21695;-58
2021/04/07 06:31:44;;;;;;;2.37;1.40;;;;;;;2.65;79.26;98064.95;1721497;81;21283;-60
2021/04/07 06:34:11;;;;;;;4.83;2.60;;;;;;;2.76;79.00;98071.45;1746804;82;21299;-59
2021/04/07 06:36:39;;;;;;;4.70;2.40;;;;;;;2.75;79.33;98064.98;1745862;82;21161;-61
2021/04/07 06:39:07;;;;;;;3.75;2.10;;;;;;;2.75;78.90;98072.52;1744368;81;21665;-61
2021/04/07 06:41:35;;;;;;;3.52;2.10;;;;;;;2.83;79.22;98072.03;1730084;81;21149;-59
2021/04/07 06:44:03;;;;;;;2.92;1.57;;;;;;;2.86;78.86;98071.50;1733051;81;21173;-58
2021/04/07 06:46:31;;;;;;;2.65;1.45;;;;;;;2.81;78.68;98066.09;1728014;81;21314;-59
2021/04/07 06:48:59;;;;;;;1.57;1.00;;;;;;;2.79;78.04;98068.24;1728793;82;21217;-58
2021/04/07 06:51:26;;;;;;;3.00;1.27;;;;;;;2.77;77.54;98067.67;1742347;81;21557;-58
2021/04/07 06:53:54;;;;;;;2.90;1.60;;;;;;;2.75;77.96;98078.42;1738292;81;21161;-58
2021/04/07 06:56:22;;;;;;;2.22;0.88;;;;;;;2.72;78.38;98080.30;1746829;81;21596;-58
2021/04/07 06:58:49;;;;;;;1.55;1.00;;;;;;;2.81;77.68;98080.87;1736140;82;21159;-58
2021/04/07 07:01:17;;;;;;;1.45;1.12;;;;;;;2.84;77.34;98079.53;1748667;81;21156;-59
2021/04/07 07:03:44;;;;;;;1.57;1.00;;;;;;;2.86;77.71;98084.12;1750756;80;21719;-59
2021/04/07 07:06:12;;;;;;;1.98;1.20;;;;;;;3.05;77.97;98081.80;1736433;81;21184;-58
2021/04/07 07:08:42;;;;;;;1.77;1.20;;;;;;;3.28;77.38;98092.89;1739562;81;21881;-58
2021/04/07 07:11:17;;;;;;;2.35;1.22;;;;;;;3.16;75.30;98093.64;1754861;81;21166;-59
2021/04/07 07:13:46;;;;;;;1.95;0.88;;;;;;;3.06;76.14;98103.02;1747816;81;21170;-57
2021/04/07 07:16:28;;;;;;;2.00;1.07;;;;;;;3.04;75.33;98101.67;1708459;81;21286;-60
2021/04/07 07:18:57;;;;;;;2.65;1.55;;;;;;;3.10;75.30;98106.80;1746075;81;21174;-58
2021/04/07 07:21:26;;;;;;;3.22;1.80;;;;;;;3.03;76.02;98106.23;1749584;80;21209;-58
2021/04/07 07:23:56;;;;;;;2.37;1.30;;;;;;;3.03;76.06;98107.58;1745697;82;21172;-58
2021/04/07 07:26:25;;;;;;;2.17;1.17;;;;;;;3.10;75.81;98106.80;1738063;81;21157;-58
2021/04/07 07:28:57;;;;;;;2.10;1.10;;;;;;;3.12;75.28;98106.55;1743715;81;21222;-58
2021/04/07 07:31:29;;;;;;;2.77;1.22;;;;;;;3.05;75.91;98105.42;1735628;81;21153;-58
2021/04/07 07:33:59;;;;;;;2.70;1.42;;;;;;;3.04;75.27;98104.36;1728609;81;21185;-59
2021/04/07 07:36:29;;;;;;;2.10;1.30;;;;;;;3.08;75.24;98100.89;1745348;81;21153;-59
2021/04/07 07:38:58;;;;;;;2.90;1.20;;;;;;;3.05;75.71;98105.98;1740768;81;21723;-58
2021/04/07 07:41:30;;;;;;;2.58;1.30;;;;;;;2.97;75.50;98100.58;1737122;81;21576;-58
2021/04/07 07:44:00;;;;;;;2.75;1.25;;;;;;;3.07;75.73;98087.70;1747454;82;21149;-58
2021/04/07 07:46:30;;;;;;;3.10;1.35;;;;;;;3.12;75.18;98095.80;1739032;81;21170;-58
2021/04/07 07:49:00;;;;;;;2.98;1.60;;;;;;;3.12;75.65;98094.45;1739889;82;21173;-59
2021/04/07 07:51:28;;;;;;;2.45;1.30;;;;;;;3.12;75.73;98084.48;1753132;81;21126;-58
2021/04/07 07:53:55;;;;;;;2.12;1.30;;;;;;;3.27;74.98;98086.42;1738760;82;21157;-59
2021/04/07 07:56:35;;;;;;;2.10;1.40;;;;;;;3.18;74.65;98083.45;1758559;81;21154;-58
2021/04/07 07:59:03;;;;;;;2.70;1.50;;;;;;;3.09;75.50;98088.23;1758264;80;21177;-58
2021/04/07 08:01:42;;;;;;;2.62;1.40;;;;;;;3.12;74.85;98094.45;1750896;81;21214;-58
2021/04/07 08:04:10;;;;;;;2.98;1.65;;;;;;;3.08;74.84;98094.70;1742400;82;21658;-58
2021/04/07 08:06:39;;;;;;;4.05;1.72;;;;;;;3.03;75.47;98098.70;1748666;82;21151;-58
2021/04/07 08:09:07;;;;;;;3.30;1.57;;;;;;;3.12;75.49;98097.92;1710002;84;21159;-58
2021/04/07 08:11:36;;;;;;;2.52;1.57;;;;;;;3.14;75.29;98090.42;1730728;81;21126;-58
2021/04/07 08:14:04;;;;;;;2.40;1.60;;;;;;;3.17;75.10;98087.20;1744215;82;21206;-58
2021/04/07 08:16:33;;;;;;;2.30;1.50;;;;;;;3.30;73.68;98089.92;1767770;80;21141;-59
2021/04/07 08:19:00;;;;;;;2.35;1.40;;;;;;;3.30;73.37;98100.14;1744526;82;21615;-58
2021/04/07 08:21:28;;;;;;;2.42;1.67;;;;;;;3.31;73.89;98104.45;1763750;81;21213;-58
2021/04/07 08:24:01;;;;;;;2.27;1.22;;;;;;;3.26;73.22;98097.70;1728821;81;21192;-59
2021/04/07 08:26:30;;;;;;;2.58;1.70;;;;;;;3.28;72.81;98096.11;1753076;80;21196;-58
2021/04/07 08:28:58;;;;;;;2.92;1.80;;;;;;;3.24;72.38;98101.73;1739092;82;21600;-58
2021/04/07 08:31:26;;;;;;;2.70;1.50;;;;;;;3.13;72.30;98102.23;1743083;82;21165;-58
2021/04/07 08:33:56;;;;;;;3.12;1.75;;;;;;;3.13;72.65;98095.52;1730053;80;21161;-58
2021/04/07 08:36:28;;;;;;;2.87;1.70;;;;;;;3.26;72.98;98094.23;1736991;80;21170;-58
2021/04/07 08:39:07;;;;;;;3.52;2.00;;;;;;;3.25;72.13;98092.61;1737805;80;21594;-58
2021/04/07 08:41:34;;;;;;;2.75;1.80;;;;;;;3.13;73.18;98092.83;1735213;82;21344;-59
2021/04/07 08:44:02;;;;;;;2.92;1.77;;;;;;;3.22;72.87;98097.98;1736428;82;21605;-58
2021/04/07 08:46:45;;;;;;;2.83;1.77;;;;;;;3.39;73.52;98093.73;1721616;80;21193;-58
2021/04/07 08:49:41;;;;;;;2.98;1.80;;;;;;;3.45;72.90;98101.54;1739043;82;21161;-58
2021/04/07 08:52:22;;;;;;;3.12;1.75;;;;;;;3.45;73.43;98094.00;1736712;82;21153;-58
2021/04/07 08:54:52;;;;;;;2.87;1.80;;;;;;;3.51;72.80;98095.09;1693769;83;21575;-58
2021/04/07 08:57:33;;;;;;;3.90;1.90;;;;;;;3.55;72.87;98097.25;1746684;82;21142;-57
2021/04/07 09:00:16;;;;;;;2.83;1.80;;;;;;;3.47;72.65;98098.59;1742942;80;21150;-58
2021/04/07 09:02:49;;;;;;;3.27;1.85;;;;;;;3.39;73.47;98099.92;1745919;80;21157;-58
2021/04/07 09:05:19;;;;;;;2.67;1.60;;;;;;;3.41;73.63;98083.50;1724543;81;21300;-58
2021/04/07 09:07:47;;;;;;;3.10;2.00;;;;;;;3.43;74.83;98090.78;1725315;81;21737;-58
2021/04/07 09:10:18;;;;;;;2.83;1.57;;;;;;;3.42;74.87;98086.47;1725647;82;21177;-58
2021/04/07 09:12:49;;;;;;;3.27;1.87;;;;;;;3.50;75.74;98097.53;1710945;83;21593;-58
2021/04/07 09:15:25;;;;;;;3.52;2.20;;;;;;;3.69;74.75;98095.66;1700396;84;21982;-58
2021/04/07 09:17:55;;;;;;;2.98;1.90;;;;;;;3.67;74.10;98095.13;1731350;82;21676;-58
2021/04/07 09:20:40;;;;;;;3.70;1.90;;;;;;;3.64;73.67;98092.97;1734666;82;21173;-58
2021/04/07 09:23:26;;;;;;;2.62;1.55;;;;;;;3.66;74.14;98096.19;1734494;82;21565;-59
2021/04/07 09:25:59;;;;;;;6.03;3.42;;;;;;;3.68;73.48;98091.38;1732821;82;21640;-58
2021/04/07 09:28:40;;;;;;;3.50;2.27;;;;;;;3.57;74.39;98100.50;1729109;82;21328;-59
2021/04/07 09:31:34;;;;;;;5.60;2.87;;;;;;;3.50;74.15;98109.64;1743248;82;21132;-58
2021/04/07 09:34:03;;;;;;;4.70;2.60;;;;;;;3.49;74.52;98103.98;1748387;82;21192;-58
2021/04/07 09:36:39;;;;;;;3.35;1.75;;;;;;;3.32;74.49;98110.65;1743855;81;21145;-58
2021/04/07 09:39:15;;;;;;;3.17;1.77;;;;;;;3.25;75.26;98110.91;1746462;82;21326;-59
2021/04/07 09:41:44;;;;;;;2.70;1.87;;;;;;;3.33;75.13;98117.09;1726483;82;21180;-59
2021/04/07 09:44:13;;;;;;;3.22;2.27;;;;;;;3.38;75.81;98113.09;1737553;82;21190;-59
2021/04/07 09:46:40;;;;;;;3.47;1.82;;;;;;;3.34;76.05;98112.00;1731539;80;21598;-59
2021/04/07 09:49:11;;;;;;;2.85;2.02;;;;;;;3.47;76.27;98106.67;1730896;82;21135;-59
2021/04/07 09:51:45;;;;;;;2.75;1.92;;;;;;;3.61;76.00;98106.97;1732696;82;21144;-59
2021/04/07 09:54:18;;;;;;;3.75;2.60;;;;;;;3.61;74.78;98111.00;1736193;81;21296;-59
2021/04/07 09:58:47;;;;;;;3.67;2.42;;;;;;;3.57;74.74;98114.76;1781033;79;23102;-58
2021/04/07 10:01:15;;;;;;;3.62;2.30;;;;;;;3.51;75.49;98115.27;1760866;80;21679;-58
2021/04/07 10:03:52;;;;;;;4.10;3.00;;;;;;;3.46;75.05;98119.30;1760203;80;21600;-58
2021/04/07 10:06:22;;;;;;;3.45;2.22;;;;;;;3.61;75.53;98121.23;1723177;83;21581;-58
2021/04/07 10:09:05;;;;;;;4.92;3.00;;;;;;;3.63;75.13;98128.48;1722917;83;21303;-58
2021/04/07 10:11:38;;;;;;;5.62;2.90;;;;;;;3.40;75.35;98123.59;1722255;82;21169;-58
2021/04/07 10:14:07;;;;;;;6.25;3.70;;;;;;;3.39;76.87;98125.47;1723543;82;21283;-57
2021/04/07 10:16:39;;;;;;;5.47;3.33;;;;;;;3.41;76.78;98123.31;1725462;82;21137;-58
2021/04/07 10:19:08;;;;;;;6.05;3.27;;;;;;;3.26;76.74;98124.59;1718056;83;21175;-58
2021/04/07 10:21:38;;;;;;;7.62;4.00;;;;;;;3.20;76.67;98130.22;1686509;84;21137;-57
2021/04/07 10:24:07;;;;;;;4.67;3.27;;;;;;;3.21;77.22;98128.63;1680717;84;21523;-59
2021/04/07 10:26:44;;;;;;;4.03;2.55;;;;;;;3.18;78.06;98133.20;1694950;84;21141;-58
2021/04/07 10:29:24;;;;;;;3.62;2.72;;;;;;;3.25;77.85;98140.48;1700709;83;21210;-58
2021/04/07 10:31:55;;;;;;;5.08;3.05;;;;;;;3.27;77.13;98144.23;1701542;84;21314;-57
2021/04/07 10:34:35;;;;;;;4.42;3.05;;;;;;;3.24;78.00;98134.01;1683884;84;21621;-58
2021/04/07 10:37:03;;;;;;;4.70;3.10;;;;;;;3.36;78.17;98135.95;1706231;84;21338;-58
2021/04/07 10:39:41;;;;;;;4.78;3.20;;;;;;;3.37;77.72;98137.55;1706607;84;21196;-58
2021/04/07 10:42:20;;;;;;;5.33;3.12;;;;;;;3.23;78.68;98130.51;1698839;82;21562;-58
2021/04/07 10:45:00;;;;;;;3.72;2.98;;;;;;;3.16;78.20;98129.94;1707374;83;21121;-57
2021/04/07 10:47:35;;;;;;;2.95;2.33;;;;;;;3.23;78.54;98131.85;1720853;83;21157;-58
2021/04/07 10:50:05;;;;;;;4.00;3.10;;;;;;;3.20;78.77;98127.53;1727447;83;21283;-58
2021/04/07 10:52:36;;;;;;;3.37;2.33;;;;;;;3.19;79.00;98125.94;1726536;83;21169;-58
2021/04/07 10:55:14;;;;;;;5.92;2.90;;;;;;;3.30;79.13;98132.42;1677379;85;21287;-58
2021/04/07 10:57:45;;;;;;;3.58;2.77;;;;;;;3.30;78.95;98125.69;1668865;84;21190;-57
2021/04/07 11:00:33;;;;;;;4.65;2.60;;;;;;;3.22;78.71;98124.88;1659588;85;21143;-58
2021/04/07 11:03:01;;;;;;;3.72;2.77;;;;;;;3.32;78.26;98132.98;1710260;83;21218;-58
2021/04/07 11:05:45;;;;;;;3.50;2.67;;;;;;;3.33;77.84;98123.81;1722372;82;21142;-58
2021/04/07 11:08:14;;;;;;;3.95;2.50;;;;;;;3.21;78.42;98134.55;1711825;83;21168;-58
2021/04/07 11:10:47;;;;;;;4.45;2.75;;;;;;;3.22;78.36;98127.56;1715412;82;21133;-58
2021/04/07 11:13:18;;;;;;;4.62;2.83;;;;;;;3.27;78.87;98134.30;1717355;82;21220;-58
2021/04/07 11:15:47;;;;;;;3.98;2.72;;;;;;;3.26;79.45;98129.98;1715635;83;21492;-58
2021/04/07 11:18:15;;;;;;;4.42;2.33;;;;;;;3.19;78.08;98130.75;1718347;83;21201;-59
2021/04/07 11:20:45;;;;;;;4.42;2.52;;;;;;;3.11;77.84;98129.12;1700454;83;21126;-59
2021/04/07 11:23:14;;;;;;;3.50;2.37;;;;;;;3.00;78.28;98131.77;1700665;82;21175;-59
2021/04/07 11:25:44;;;;;;;5.83;2.58;;;;;;;3.04;79.26;98133.94;1716428;83;21163;-59
2021/04/07 11:28:17;;;;;;;3.60;2.50;;;;;;;3.17;78.61;98133.45;1710349;83;21207;-57
2021/04/07 11:33:26;;;;;;;3.90;2.55;;;;;;;3.15;79.20;98136.95;1780843;78;28438;-63
2021/04/07 11:38:33;;;;;;;4.20;2.50;;;;;;;3.49;76.74;98140.83;1742025;79;22699;-62
2021/04/07 11:46:35;;;;;;;4.67;2.67;;;;;;;3.30;76.41;98153.94;1552479;91;21266;-60
2021/04/07 11:49:04;;;;;;;4.22;2.75;;;;;;;3.20;77.67;98144.48;1580427;89;21172;-61
2021/04/07 11:51:36;;;;;;;3.67;2.27;;;;;;;3.23;78.06;98152.55;1583689;89;21640;-60
2021/04/07 11:54:04;;;;;;;4.65;3.00;;;;;;;3.33;78.12;98142.64;1586144;89;22196;-60
2021/04/07 11:56:32;;;;;;;4.55;3.00;;;;;;;3.24;77.58;98146.92;1576563;89;21236;-60
2021/04/07 11:58:59;;;;;;;4.15;3.12;;;;;;;3.10;78.11;98146.31;1587520;88;21346;-60
2021/04/07 12:01:27;;;;;;;4.30;3.27;;;;;;;2.99;78.58;98153.53;1587661;89;21207;-60
2021/04/07 12:03:55;;;;;;;5.55;3.50;;;;;;;2.95;78.92;98153.77;1575886;89;21250;-60
2021/04/07 12:06:22;;;;;;;8.35;4.58;;;;;;;2.89;79.76;98162.88;1592384;88;21178;-60